Webster Park, Illinois
Current Conditions -  °F | °C
As of 8:55 AM on Sunday 23 Nov 2014 (Local Time) from KVYS Reporting Station
Drizzle Drizzle  
Wind Chill: 50°   Ceiling: 6500
Heat Index: 50°   Visibility: 10mi
Dew Point: 46°   Wind: 10mph
Humidity: 86%   Direction: 160°SSE
Pressure: 29.71"   Gusts: NA
Location:  41.3345°N, 89.2159°W
Report Text: KVYS 231455Z AUTO 16009KT 10SM -DZ SCT035 BKN065 OVC085 10/08 A2971 RMK AO2 T01010079
Loading
Personal Weather Stations






























Interactive Weather Map New forecast layout! Learn more

10-Day Weather Forecast

Advertisements
Track Severe Weather on mobile